sensor_id;sensor_type;location;lat;lon;timestamp;P1;durP1;ratioP1;P2;durP2;ratioP2
4089;SDS011;2059;48.538;12.146;2023-05-16T00:01:08;1.50;;;1.50;;
4089;SDS011;2059;48.538;12.146;2023-05-16T00:06:11;1.43;;;1.43;;
4089;SDS011;2059;48.538;12.146;2023-05-16T00:11:15;1.40;;;1.40;;
4089;SDS011;2059;48.538;12.146;2023-05-16T00:16:18;1.10;;;1.10;;
4089;SDS011;2059;48.538;12.146;2023-05-16T00:21:20;1.20;;;1.20;;
4089;SDS011;2059;48.538;12.146;2023-05-16T00:26:22;1.20;;;1.20;;
4089;SDS011;2059;48.538;12.146;2023-05-16T00:31:26;1.33;;;1.33;;
4089;SDS011;2059;48.538;12.146;2023-05-16T00:36:28;1.20;;;1.20;;
4089;SDS011;2059;48.538;12.146;2023-05-16T00:41:32;1.20;;;1.20;;
4089;SDS011;2059;48.538;12.146;2023-05-16T00:46:35;1.47;;;1.47;;
4089;SDS011;2059;48.538;12.146;2023-05-16T00:51:37;1.20;;;1.20;;
4089;SDS011;2059;48.538;12.146;2023-05-16T00:56:39;1.20;;;1.20;;
4089;SDS011;2059;48.538;12.146;2023-05-16T01:01:42;1.30;;;1.20;;
4089;SDS011;2059;48.538;12.146;2023-05-16T01:06:46;1.20;;;1.20;;
4089;SDS011;2059;48.538;12.146;2023-05-16T01:11:49;1.30;;;1.30;;
4089;SDS011;2059;48.538;12.146;2023-05-16T01:16:58;1.37;;;1.37;;
4089;SDS011;2059;48.538;12.146;2023-05-16T01:22:06;1.37;;;1.37;;
4089;SDS011;2059;48.538;12.146;2023-05-16T01:27:15;1.40;;;1.40;;
4089;SDS011;2059;48.538;12.146;2023-05-16T01:32:18;1.50;;;1.50;;
4089;SDS011;2059;48.538;12.146;2023-05-16T01:37:23;1.30;;;1.30;;
4089;SDS011;2059;48.538;12.146;2023-05-16T01:42:32;1.30;;;1.30;;
4089;SDS011;2059;48.538;12.146;2023-05-16T01:47:40;1.27;;;1.27;;
4089;SDS011;2059;48.538;12.146;2023-05-16T01:52:47;1.30;;;1.30;;
4089;SDS011;2059;48.538;12.146;2023-05-16T01:57:56;1.30;;;1.30;;
4089;SDS011;2059;48.538;12.146;2023-05-16T02:03:00;1.30;;;1.30;;
4089;SDS011;2059;48.538;12.146;2023-05-16T02:08:01;1.40;;;1.40;;
4089;SDS011;2059;48.538;12.146;2023-05-16T02:13:05;1.13;;;1.13;;
4089;SDS011;2059;48.538;12.146;2023-05-16T02:18:07;1.20;;;1.20;;
4089;SDS011;2059;48.538;12.146;2023-05-16T02:23:10;1.30;;;1.30;;
4089;SDS011;2059;48.538;12.146;2023-05-16T02:28:13;1.40;;;1.40;;
4089;SDS011;2059;48.538;12.146;2023-05-16T02:33:14;1.30;;;1.30;;
4089;SDS011;2059;48.538;12.146;2023-05-16T02:38:16;1.50;;;1.50;;
4089;SDS011;2059;48.538;12.146;2023-05-16T02:43:21;1.40;;;1.40;;
4089;SDS011;2059;48.538;12.146;2023-05-16T02:48:23;1.53;;;1.53;;
4089;SDS011;2059;48.538;12.146;2023-05-16T02:53:24;1.50;;;1.50;;
4089;SDS011;2059;48.538;12.146;2023-05-16T02:58:27;1.67;;;1.60;;
4089;SDS011;2059;48.538;12.146;2023-05-16T03:03:29;1.23;;;1.23;;
4089;SDS011;2059;48.538;12.146;2023-05-16T03:08:32;1.63;;;1.53;;
4089;SDS011;2059;48.538;12.146;2023-05-16T03:13:35;2.00;;;2.00;;
4089;SDS011;2059;48.538;12.146;2023-05-16T03:18:37;2.00;;;2.00;;
4089;SDS011;2059;48.538;12.146;2023-05-16T03:23:39;1.50;;;1.50;;
4089;SDS011;2059;48.538;12.146;2023-05-16T03:28:42;1.20;;;1.20;;
4089;SDS011;2059;48.538;12.146;2023-05-16T03:33:43;1.80;;;1.73;;
4089;SDS011;2059;48.538;12.146;2023-05-16T03:38:45;1.47;;;1.47;;
4089;SDS011;2059;48.538;12.146;2023-05-16T03:43:49;1.40;;;1.40;;
4089;SDS011;2059;48.538;12.146;2023-05-16T03:48:50;1.40;;;1.40;;
4089;SDS011;2059;48.538;12.146;2023-05-16T03:53:52;1.30;;;1.30;;
4089;SDS011;2059;48.538;12.146;2023-05-16T03:58:55;1.33;;;1.33;;
4089;SDS011;2059;48.538;12.146;2023-05-16T04:03:57;1.70;;;1.60;;
4089;SDS011;2059;48.538;12.146;2023-05-16T04:08:59;1.47;;;1.47;;
4089;SDS011;2059;48.538;12.146;2023-05-16T04:14:03;1.50;;;1.50;;
4089;SDS011;2059;48.538;12.146;2023-05-16T04:19:05;1.40;;;1.40;;
4089;SDS011;2059;48.538;12.146;2023-05-16T04:24:07;1.30;;;1.30;;
4089;SDS011;2059;48.538;12.146;2023-05-16T04:29:10;1.30;;;1.30;;
4089;SDS011;2059;48.538;12.146;2023-05-16T04:34:12;1.63;;;1.60;;
4089;SDS011;2059;48.538;12.146;2023-05-16T04:39:14;1.30;;;1.30;;
4089;SDS011;2059;48.538;12.146;2023-05-16T04:44:17;1.50;;;1.50;;
4089;SDS011;2059;48.538;12.146;2023-05-16T04:49:20;1.80;;;1.70;;
4089;SDS011;2059;48.538;12.146;2023-05-16T04:54:22;1.60;;;1.60;;
4089;SDS011;2059;48.538;12.146;2023-05-16T04:59:26;1.60;;;1.60;;
4089;SDS011;2059;48.538;12.146;2023-05-16T05:04:28;1.47;;;1.47;;
4089;SDS011;2059;48.538;12.146;2023-05-16T05:09:30;1.50;;;1.50;;
4089;SDS011;2059;48.538;12.146;2023-05-16T05:14:33;1.63;;;1.63;;
4089;SDS011;2059;48.538;12.146;2023-05-16T05:19:35;1.40;;;1.40;;
4089;SDS011;2059;48.538;12.146;2023-05-16T05:24:37;1.60;;;1.50;;
4089;SDS011;2059;48.538;12.146;2023-05-16T05:29:40;1.30;;;1.30;;
4089;SDS011;2059;48.538;12.146;2023-05-16T05:34:42;1.40;;;1.40;;
4089;SDS011;2059;48.538;12.146;2023-05-16T05:39:43;1.50;;;1.50;;
4089;SDS011;2059;48.538;12.146;2023-05-16T05:44:46;1.50;;;1.50;;
4089;SDS011;2059;48.538;12.146;2023-05-16T05:49:48;1.63;;;1.63;;
4089;SDS011;2059;48.538;12.146;2023-05-16T05:54:50;1.40;;;1.40;;
4089;SDS011;2059;48.538;12.146;2023-05-16T05:59:54;1.40;;;1.40;;
4089;SDS011;2059;48.538;12.146;2023-05-16T06:04:55;1.60;;;1.60;;
4089;SDS011;2059;48.538;12.146;2023-05-16T06:09:57;1.53;;;1.53;;
4089;SDS011;2059;48.538;12.146;2023-05-16T06:15:05;1.60;;;1.60;;
4089;SDS011;2059;48.538;12.146;2023-05-16T06:20:07;1.67;;;1.67;;
4089;SDS011;2059;48.538;12.146;2023-05-16T06:25:10;1.60;;;1.60;;
4089;SDS011;2059;48.538;12.146;2023-05-16T06:30:13;1.70;;;1.70;;
4089;SDS011;2059;48.538;12.146;2023-05-16T06:35:15;1.50;;;1.50;;
4089;SDS011;2059;48.538;12.146;2023-05-16T06:40:17;1.87;;;1.77;;
4089;SDS011;2059;48.538;12.146;2023-05-16T06:45:20;1.70;;;1.70;;
4089;SDS011;2059;48.538;12.146;2023-05-16T06:50:22;1.80;;;1.80;;
4089;SDS011;2059;48.538;12.146;2023-05-16T06:55:24;1.67;;;1.67;;
4089;SDS011;2059;48.538;12.146;2023-05-16T07:00:27;2.00;;;2.00;;
4089;SDS011;2059;48.538;12.146;2023-05-16T07:05:29;1.90;;;1.90;;
4089;SDS011;2059;48.538;12.146;2023-05-16T07:10:30;2.87;;;2.77;;
4089;SDS011;2059;48.538;12.146;2023-05-16T07:15:33;2.30;;;2.20;;
4089;SDS011;2059;48.538;12.146;2023-05-16T07:20:35;2.20;;;2.10;;
4089;SDS011;2059;48.538;12.146;2023-05-16T07:25:37;3.97;;;3.87;;
4089;SDS011;2059;48.538;12.146;2023-05-16T07:30:40;5.07;;;4.87;;
4089;SDS011;2059;48.538;12.146;2023-05-16T07:35:42;2.47;;;2.47;;
4089;SDS011;2059;48.538;12.146;2023-05-16T07:40:44;3.10;;;3.00;;
4089;SDS011;2059;48.538;12.146;2023-05-16T07:45:47;2.37;;;2.37;;
4089;SDS011;2059;48.538;12.146;2023-05-16T07:50:49;2.50;;;2.40;;
4089;SDS011;2059;48.538;12.146;2023-05-16T07:55:50;2.63;;;2.50;;
4089;SDS011;2059;48.538;12.146;2023-05-16T08:00:54;2.30;;;2.30;;
4089;SDS011;2059;48.538;12.146;2023-05-16T08:05:55;2.10;;;2.10;;
4089;SDS011;2059;48.538;12.146;2023-05-16T08:10:57;2.30;;;2.20;;
4089;SDS011;2059;48.538;12.146;2023-05-16T08:16:00;2.10;;;2.10;;
4089;SDS011;2059;48.538;12.146;2023-05-16T08:21:02;2.23;;;2.13;;
4089;SDS011;2059;48.538;12.146;2023-05-16T08:26:04;2.00;;;2.00;;
4089;SDS011;2059;48.538;12.146;2023-05-16T08:31:07;4.80;;;4.60;;
4089;SDS011;2059;48.538;12.146;2023-05-16T08:36:09;3.70;;;3.60;;
4089;SDS011;2059;48.538;12.146;2023-05-16T08:41:11;2.63;;;2.53;;
4089;SDS011;2059;48.538;12.146;2023-05-16T08:46:14;2.50;;;2.40;;
4089;SDS011;2059;48.538;12.146;2023-05-16T08:51:21;2.20;;;2.10;;
4089;SDS011;2059;48.538;12.146;2023-05-16T08:56:25;2.30;;;2.30;;
4089;SDS011;2059;48.538;12.146;2023-05-16T09:01:29;2.70;;;2.60;;
4089;SDS011;2059;48.538;12.146;2023-05-16T09:06:31;2.47;;;2.30;;
4089;SDS011;2059;48.538;12.146;2023-05-16T09:11:33;1.93;;;1.93;;
4089;SDS011;2059;48.538;12.146;2023-05-16T09:16:36;2.43;;;2.40;;
4089;SDS011;2059;48.538;12.146;2023-05-16T09:21:38;2.20;;;2.20;;
4089;SDS011;2059;48.538;12.146;2023-05-16T09:26:40;2.23;;;2.23;;
4089;SDS011;2059;48.538;12.146;2023-05-16T09:31:48;2.90;;;2.80;;
4089;SDS011;2059;48.538;12.146;2023-05-16T09:36:53;3.00;;;2.90;;
4089;SDS011;2059;48.538;12.146;2023-05-16T09:41:55;2.80;;;2.70;;
4089;SDS011;2059;48.538;12.146;2023-05-16T09:47:00;5.30;;;5.10;;
4089;SDS011;2059;48.538;12.146;2023-05-16T09:52:02;3.17;;;3.07;;
4089;SDS011;2059;48.538;12.146;2023-05-16T09:57:05;2.57;;;2.57;;
4089;SDS011;2059;48.538;12.146;2023-05-16T10:02:08;3.13;;;2.93;;
4089;SDS011;2059;48.538;12.146;2023-05-16T10:07:11;2.80;;;2.70;;
4089;SDS011;2059;48.538;12.146;2023-05-16T10:12:13;2.90;;;2.80;;
4089;SDS011;2059;48.538;12.146;2023-05-16T10:17:17;3.13;;;3.03;;
4089;SDS011;2059;48.538;12.146;2023-05-16T10:22:19;4.60;;;4.40;;
4089;SDS011;2059;48.538;12.146;2023-05-16T10:27:23;3.30;;;3.20;;
4089;SDS011;2059;48.538;12.146;2023-05-16T10:32:26;2.87;;;2.80;;
4089;SDS011;2059;48.538;12.146;2023-05-16T10:37:29;3.03;;;2.93;;
4089;SDS011;2059;48.538;12.146;2023-05-16T10:42:32;3.50;;;3.40;;
4089;SDS011;2059;48.538;12.146;2023-05-16T10:47:35;3.40;;;3.30;;
4089;SDS011;2059;48.538;12.146;2023-05-16T10:52:37;3.10;;;3.00;;
4089;SDS011;2059;48.538;12.146;2023-05-16T10:57:39;3.10;;;3.00;;
4089;SDS011;2059;48.538;12.146;2023-05-16T11:02:46;2.63;;;2.63;;
4089;SDS011;2059;48.538;12.146;2023-05-16T11:07:48;3.13;;;3.03;;
4089;SDS011;2059;48.538;12.146;2023-05-16T11:13:06;5.80;;;5.60;;
4089;SDS011;2059;48.538;12.146;2023-05-16T11:18:14;2.90;;;2.80;;
4089;SDS011;2059;48.538;12.146;2023-05-16T11:23:21;3.10;;;3.00;;
4089;SDS011;2059;48.538;12.146;2023-05-16T11:28:24;2.90;;;2.80;;
4089;SDS011;2059;48.538;12.146;2023-05-16T11:33:29;3.47;;;3.37;;
4089;SDS011;2059;48.538;12.146;2023-05-16T11:38:34;3.13;;;3.03;;
4089;SDS011;2059;48.538;12.146;2023-05-16T11:43:36;3.10;;;3.00;;
4089;SDS011;2059;48.538;12.146;2023-05-16T11:48:43;3.03;;;2.93;;
4089;SDS011;2059;48.538;12.146;2023-05-16T11:53:46;2.83;;;2.83;;
4089;SDS011;2059;48.538;12.146;2023-05-16T11:58:49;3.30;;;3.20;;
4089;SDS011;2059;48.538;12.146;2023-05-16T12:03:55;3.03;;;2.93;;
4089;SDS011;2059;48.538;12.146;2023-05-16T12:08:57;3.27;;;3.17;;
4089;SDS011;2059;48.538;12.146;2023-05-16T12:14:02;3.03;;;2.93;;
4089;SDS011;2059;48.538;12.146;2023-05-16T12:19:06;3.27;;;3.17;;
4089;SDS011;2059;48.538;12.146;2023-05-16T12:24:08;3.10;;;3.00;;
4089;SDS011;2059;48.538;12.146;2023-05-16T12:29:11;3.10;;;3.00;;
4089;SDS011;2059;48.538;12.146;2023-05-16T12:34:15;2.80;;;2.80;;
4089;SDS011;2059;48.538;12.146;2023-05-16T12:39:19;3.13;;;3.03;;
4089;SDS011;2059;48.538;12.146;2023-05-16T12:44:21;3.77;;;3.67;;
4089;SDS011;2059;48.538;12.146;2023-05-16T12:49:25;3.10;;;3.00;;
4089;SDS011;2059;48.538;12.146;2023-05-16T12:54:27;2.50;;;2.50;;
4089;SDS011;2059;48.538;12.146;2023-05-16T12:59:28;2.50;;;2.50;;
4089;SDS011;2059;48.538;12.146;2023-05-16T13:04:32;2.50;;;2.50;;
4089;SDS011;2059;48.538;12.146;2023-05-16T13:09:34;2.20;;;2.20;;
4089;SDS011;2059;48.538;12.146;2023-05-16T13:14:35;2.20;;;2.20;;
4089;SDS011;2059;48.538;12.146;2023-05-16T13:19:39;2.50;;;2.40;;
4089;SDS011;2059;48.538;12.146;2023-05-16T13:24:41;2.50;;;2.40;;
4089;SDS011;2059;48.538;12.146;2023-05-16T13:29:42;2.67;;;2.50;;
4089;SDS011;2059;48.538;12.146;2023-05-16T13:34:46;1.90;;;1.90;;
4089;SDS011;2059;48.538;12.146;2023-05-16T13:39:47;2.00;;;2.00;;
4089;SDS011;2059;48.538;12.146;2023-05-16T13:44:49;4.10;;;4.00;;
4089;SDS011;2059;48.538;12.146;2023-05-16T13:49:52;3.27;;;3.17;;
4089;SDS011;2059;48.538;12.146;2023-05-16T13:54:54;3.60;;;3.50;;
4089;SDS011;2059;48.538;12.146;2023-05-16T13:59:56;3.83;;;3.73;;
4089;SDS011;2059;48.538;12.146;2023-05-16T14:04:59;2.10;;;2.00;;
4089;SDS011;2059;48.538;12.146;2023-05-16T14:10:01;2.30;;;2.30;;
4089;SDS011;2059;48.538;12.146;2023-05-16T14:15:03;2.07;;;2.07;;
4089;SDS011;2059;48.538;12.146;2023-05-16T14:20:07;2.20;;;2.20;;
4089;SDS011;2059;48.538;12.146;2023-05-16T14:25:10;2.07;;;2.07;;
4089;SDS011;2059;48.538;12.146;2023-05-16T14:30:12;2.20;;;2.20;;
4089;SDS011;2059;48.538;12.146;2023-05-16T14:35:15;2.50;;;2.40;;
4089;SDS011;2059;48.538;12.146;2023-05-16T14:40:17;2.20;;;2.20;;
4089;SDS011;2059;48.538;12.146;2023-05-16T14:45:20;2.00;;;2.00;;
4089;SDS011;2059;48.538;12.146;2023-05-16T14:50:23;1.77;;;1.77;;
4089;SDS011;2059;48.538;12.146;2023-05-16T14:55:25;1.77;;;1.77;;
4089;SDS011;2059;48.538;12.146;2023-05-16T15:00:27;1.87;;;1.80;;
4089;SDS011;2059;48.538;12.146;2023-05-16T15:05:30;1.50;;;1.50;;
4089;SDS011;2059;48.538;12.146;2023-05-16T15:10:32;1.50;;;1.50;;
4089;SDS011;2059;48.538;12.146;2023-05-16T15:15:34;1.60;;;1.60;;
4089;SDS011;2059;48.538;12.146;2023-05-16T15:20:38;1.70;;;1.70;;
4089;SDS011;2059;48.538;12.146;2023-05-16T15:25:40;1.77;;;1.77;;
4089;SDS011;2059;48.538;12.146;2023-05-16T15:30:42;1.80;;;1.80;;
4089;SDS011;2059;48.538;12.146;2023-05-16T15:35:45;1.73;;;1.73;;
4089;SDS011;2059;48.538;12.146;2023-05-16T15:40:47;1.77;;;1.77;;
4089;SDS011;2059;48.538;12.146;2023-05-16T15:45:49;1.87;;;1.87;;
4089;SDS011;2059;48.538;12.146;2023-05-16T15:50:52;1.57;;;1.57;;
4089;SDS011;2059;48.538;12.146;2023-05-16T15:55:54;1.60;;;1.60;;
4089;SDS011;2059;48.538;12.146;2023-05-16T16:00:56;1.70;;;1.70;;
4089;SDS011;2059;48.538;12.146;2023-05-16T16:05:59;1.70;;;1.70;;
4089;SDS011;2059;48.538;12.146;2023-05-16T16:11:01;1.80;;;1.80;;
4089;SDS011;2059;48.538;12.146;2023-05-16T16:16:04;1.97;;;1.97;;
4089;SDS011;2059;48.538;12.146;2023-05-16T16:21:07;1.70;;;1.70;;
4089;SDS011;2059;48.538;12.146;2023-05-16T16:26:10;1.90;;;1.90;;
4089;SDS011;2059;48.538;12.146;2023-05-16T16:31:11;1.60;;;1.60;;
4089;SDS011;2059;48.538;12.146;2023-05-16T16:36:15;1.90;;;1.90;;
4089;SDS011;2059;48.538;12.146;2023-05-16T16:41:17;1.60;;;1.60;;
4089;SDS011;2059;48.538;12.146;2023-05-16T16:46:19;1.83;;;1.83;;
4089;SDS011;2059;48.538;12.146;2023-05-16T16:51:23;1.50;;;1.50;;
4089;SDS011;2059;48.538;12.146;2023-05-16T16:56:25;1.47;;;1.47;;
4089;SDS011;2059;48.538;12.146;2023-05-16T17:01:28;1.40;;;1.40;;
4089;SDS011;2059;48.538;12.146;2023-05-16T17:06:33;1.40;;;1.40;;
4089;SDS011;2059;48.538;12.146;2023-05-16T17:11:34;1.50;;;1.50;;
4089;SDS011;2059;48.538;12.146;2023-05-16T17:16:39;1.40;;;1.40;;
4089;SDS011;2059;48.538;12.146;2023-05-16T17:21:42;1.20;;;1.20;;
4089;SDS011;2059;48.538;12.146;2023-05-16T17:26:46;1.60;;;1.60;;
4089;SDS011;2059;48.538;12.146;2023-05-16T17:31:48;1.57;;;1.57;;
4089;SDS011;2059;48.538;12.146;2023-05-16T17:36:51;1.30;;;1.30;;
4089;SDS011;2059;48.538;12.146;2023-05-16T17:41:53;1.67;;;1.67;;
4089;SDS011;2059;48.538;12.146;2023-05-16T17:46:56;1.60;;;1.60;;
4089;SDS011;2059;48.538;12.146;2023-05-16T17:51:59;3.03;;;3.00;;
4089;SDS011;2059;48.538;12.146;2023-05-16T17:57:01;1.30;;;1.30;;
4089;SDS011;2059;48.538;12.146;2023-05-16T18:02:05;1.30;;;1.30;;
4089;SDS011;2059;48.538;12.146;2023-05-16T18:07:10;1.23;;;1.23;;
4089;SDS011;2059;48.538;12.146;2023-05-16T18:12:12;1.50;;;1.50;;
4089;SDS011;2059;48.538;12.146;2023-05-16T18:17:14;1.90;;;1.80;;
4089;SDS011;2059;48.538;12.146;2023-05-16T18:22:17;1.40;;;1.40;;
4089;SDS011;2059;48.538;12.146;2023-05-16T18:27:20;1.50;;;1.50;;
4089;SDS011;2059;48.538;12.146;2023-05-16T18:32:21;3.37;;;3.27;;
4089;SDS011;2059;48.538;12.146;2023-05-16T18:37:27;1.60;;;1.60;;
4089;SDS011;2059;48.538;12.146;2023-05-16T18:42:29;1.40;;;1.40;;
4089;SDS011;2059;48.538;12.146;2023-05-16T18:47:32;1.60;;;1.60;;
4089;SDS011;2059;48.538;12.146;2023-05-16T18:52:35;1.70;;;1.70;;
4089;SDS011;2059;48.538;12.146;2023-05-16T18:57:39;1.40;;;1.40;;
4089;SDS011;2059;48.538;12.146;2023-05-16T19:02:44;1.60;;;1.60;;
4089;SDS011;2059;48.538;12.146;2023-05-16T19:07:47;1.40;;;1.40;;
4089;SDS011;2059;48.538;12.146;2023-05-16T19:12:49;1.30;;;1.30;;
4089;SDS011;2059;48.538;12.146;2023-05-16T19:17:51;1.40;;;1.40;;
4089;SDS011;2059;48.538;12.146;2023-05-16T19:22:54;1.20;;;1.20;;
4089;SDS011;2059;48.538;12.146;2023-05-16T19:27:56;1.57;;;1.57;;
4089;SDS011;2059;48.538;12.146;2023-05-16T19:32:58;1.30;;;1.30;;
4089;SDS011;2059;48.538;12.146;2023-05-16T19:38:01;1.30;;;1.30;;
4089;SDS011;2059;48.538;12.146;2023-05-16T19:43:03;1.47;;;1.47;;
4089;SDS011;2059;48.538;12.146;2023-05-16T19:48:05;1.67;;;1.67;;
4089;SDS011;2059;48.538;12.146;2023-05-16T19:53:09;1.60;;;1.60;;
4089;SDS011;2059;48.538;12.146;2023-05-16T19:58:11;1.50;;;1.50;;
4089;SDS011;2059;48.538;12.146;2023-05-16T20:03:13;1.63;;;1.63;;
4089;SDS011;2059;48.538;12.146;2023-05-16T20:08:16;1.50;;;1.50;;
4089;SDS011;2059;48.538;12.146;2023-05-16T20:13:18;1.50;;;1.50;;
4089;SDS011;2059;48.538;12.146;2023-05-16T20:18:20;1.60;;;1.60;;
4089;SDS011;2059;48.538;12.146;2023-05-16T20:23:23;1.53;;;1.53;;
4089;SDS011;2059;48.538;12.146;2023-05-16T20:28:25;1.40;;;1.40;;
4089;SDS011;2059;48.538;12.146;2023-05-16T20:33:27;1.60;;;1.60;;
4089;SDS011;2059;48.538;12.146;2023-05-16T20:38:31;1.70;;;1.70;;
4089;SDS011;2059;48.538;12.146;2023-05-16T20:43:32;1.63;;;1.63;;
4089;SDS011;2059;48.538;12.146;2023-05-16T20:48:34;1.70;;;1.63;;
4089;SDS011;2059;48.538;12.146;2023-05-16T20:53:37;1.57;;;1.57;;
4089;SDS011;2059;48.538;12.146;2023-05-16T20:58:39;1.50;;;1.50;;
4089;SDS011;2059;48.538;12.146;2023-05-16T21:03:42;1.60;;;1.60;;
4089;SDS011;2059;48.538;12.146;2023-05-16T21:08:45;1.50;;;1.50;;
4089;SDS011;2059;48.538;12.146;2023-05-16T21:13:47;1.60;;;1.60;;
4089;SDS011;2059;48.538;12.146;2023-05-16T21:18:49;1.60;;;1.60;;
4089;SDS011;2059;48.538;12.146;2023-05-16T21:23:52;1.60;;;1.60;;
4089;SDS011;2059;48.538;12.146;2023-05-16T21:28:54;1.50;;;1.50;;
4089;SDS011;2059;48.538;12.146;2023-05-16T21:33:56;1.50;;;1.50;;
4089;SDS011;2059;48.538;12.146;2023-05-16T21:38:59;1.40;;;1.40;;
4089;SDS011;2059;48.538;12.146;2023-05-16T21:44:01;1.67;;;1.67;;
4089;SDS011;2059;48.538;12.146;2023-05-16T21:49:03;1.60;;;1.60;;
4089;SDS011;2059;48.538;12.146;2023-05-16T21:54:06;1.60;;;1.60;;
4089;SDS011;2059;48.538;12.146;2023-05-16T21:59:08;1.80;;;1.80;;
4089;SDS011;2059;48.538;12.146;2023-05-16T22:04:10;1.70;;;1.70;;
4089;SDS011;2059;48.538;12.146;2023-05-16T22:09:13;1.70;;;1.70;;
4089;SDS011;2059;48.538;12.146;2023-05-16T22:14:14;2.20;;;2.10;;
4089;SDS011;2059;48.538;12.146;2023-05-16T22:19:16;1.70;;;1.70;;
4089;SDS011;2059;48.538;12.146;2023-05-16T22:24:19;1.60;;;1.60;;
4089;SDS011;2059;48.538;12.146;2023-05-16T22:29:21;1.60;;;1.60;;
4089;SDS011;2059;48.538;12.146;2023-05-16T22:34:23;1.60;;;1.60;;
4089;SDS011;2059;48.538;12.146;2023-05-16T22:39:26;1.60;;;1.60;;
4089;SDS011;2059;48.538;12.146;2023-05-16T22:44:28;1.60;;;1.60;;
4089;SDS011;2059;48.538;12.146;2023-05-16T22:49:29;1.90;;;1.90;;
4089;SDS011;2059;48.538;12.146;2023-05-16T22:54:32;1.70;;;1.70;;
4089;SDS011;2059;48.538;12.146;2023-05-16T22:59:34;1.80;;;1.80;;
4089;SDS011;2059;48.538;12.146;2023-05-16T23:04:36;1.70;;;1.70;;
4089;SDS011;2059;48.538;12.146;2023-05-16T23:09:39;1.87;;;1.87;;
4089;SDS011;2059;48.538;12.146;2023-05-16T23:14:41;2.10;;;2.10;;
4089;SDS011;2059;48.538;12.146;2023-05-16T23:19:43;1.80;;;1.80;;
4089;SDS011;2059;48.538;12.146;2023-05-16T23:24:46;1.90;;;1.90;;
4089;SDS011;2059;48.538;12.146;2023-05-16T23:29:48;1.80;;;1.80;;
4089;SDS011;2059;48.538;12.146;2023-05-16T23:34:50;1.90;;;1.90;;
4089;SDS011;2059;48.538;12.146;2023-05-16T23:39:53;1.80;;;1.80;;
4089;SDS011;2059;48.538;12.146;2023-05-16T23:44:55;1.80;;;1.80;;
4089;SDS011;2059;48.538;12.146;2023-05-16T23:49:57;1.90;;;1.90;;
4089;SDS011;2059;48.538;12.146;2023-05-16T23:55:00;1.80;;;1.80;;
